NCAR-RAP Real-Time Weather Data

Output produced by METARs form (14 October 2019  23:01 UTC)
found at http://weather.rap.ucar.edu/surface/
 
KPDX 142253Z 30004KT 10SM FEW040 SCT250 17/04 A3003 RMK AO2 SLP170 CCSL SE AND W T01670039
KPDX 142153Z 29005KT 10SM FEW040 SCT250 16/04 A3006 RMK AO2 SLP178 T01610044
KPDX 142053Z 30007KT 10SM FEW030 FEW150 FEW250 15/06 A3007 RMK AO2 SLP182 T01500061 58015
KPDX 141953Z 30007KT 10SM FEW020 FEW250 14/07 A3009 RMK AO2 SLP191 T01390067
KPDX 141853Z 00000KT 10SM FEW005 FEW250 12/07 A3010 RMK AO2 SLP193 T01170072
KPDX 141806Z 31003KT 10SM SCT005 SCT250 10/07 A3011 RMK AO2 T01000067
KPDX 141753Z 30003KT 7SM BKN005 BKN250 09/06 A3012 RMK AO2 SLP197 T00940061 10094 20044 58002
KPDX 141739Z 29005KT 7SM BKN005 BKN250 09/06 A3012 RMK AO2 T00940061
KPDX 141724Z 29004KT 1 1/2SM BKN005 08/06 A3013 RMK AO2 SFC VIS 7 T00830056
KPDX 141653Z 30005KT 1/4SM R10R/P6000FT BR OVC002 07/06 A3013 RMK AO2 SFC VIS 3/4 SLP201 T00720056
KPDX 141619Z 32005KT 1/4SM R10R/1800V2400FT FG VV002 07/06 A3012 RMK AO2 T00720061
KPDX 141553Z 33005KT 1/2SM R10R/1800V2600FT FG BKN002 OVC007 07/06 A3012 RMK AO2 SLP200 T00720061
KPDX 141545Z 32005KT 3/4SM R10R/1800V2400FT BR BKN002 BKN007 BKN250 07/06 A3012 RMK AO2 T00720061
KPDX 141519Z 31006KT 3/4SM R10R/4500VP6000FT BR SCT004 BKN007 BKN250 07/06 A3013 RMK AO2 VIS E-SE 3 T00720056
KPDX 141453Z 27004KT 4SM R10R/1200V5500FT BR BCFG SCT004 BKN009 BKN250 06/04 A3012 RMK AO2 SLP200 VIS W 1 T00560044 53009
KPDX 141445Z 29005KT 6SM R10R/3000V5000FT BR SCT004 BKN009 BKN250 05/04 A3013 RMK AO2 VIS W 2 T00500039
KPDX 141442Z 26004KT 1 1/2SM R10R/3000VP6000FT BR BKN004 BKN250 05/03 A3013 RMK AO2 T00500033
KPDX 141406Z 00000KT 10SM R10R/5000VP6000FT MIFG BKN004 BKN250 04/03 A3012 RMK AO2 T00440033
KPDX 141353Z 00000KT 10SM R10R/3500VP6000FT MIFG SCT003 BKN250 04/03 A3012 RMK AO2 SLP197 T00440028
KPDX 141253Z 00000KT 10SM MIFG FEW005 FEW250 06/04 A3011 RMK AO2 SLP193 T00560039
KPDX 141153Z 00000KT 10SM FEW029 06/04 A3010 RMK AO2 SLP191 T00610039 10111 20050 53006
KPDX 141053Z 00000KT 10SM CLR 06/04 A3009 RMK AO2 SLP189 T00610039
KPDX 140953Z 00000KT 10SM CLR 07/05 A3008 RMK AO2 SLP186 T00720050
KPDX 140853Z 25003KT 10SM CLR 08/05 A3008 RMK AO2 SLP185 T00780050 51009
KPDX 140753Z 26004KT 10SM CLR 08/06 A3007 RMK AO2 SLP182 T00830056 401720083
KPDX 140653Z 32006KT 10SM BKN050 11/07 A3006 RMK AO2 SLP179 T01060067
KPDX 140553Z VRB05KT 10SM BKN050 11/07 A3005 RMK AO2 SLP176 T01110067 10161 20111 51016
KPDX 140453Z 30004KT 10SM FEW055 12/07 A3004 RMK AO2 SLP171 T01170067
KPDX 140353Z 32006KT 10SM BKN055 13/07 A3002 RMK AO2 SLP164 T01280072
KPDX 140253Z 30004KT 10SM BKN065 13/08 A3000 RMK AO2 SLP159 T01330078 53009
KPDX 140153Z 00000KT 10SM BKN065 15/08 A2999 RMK AO2 SLP154 T01500078
KPDX 140053Z 35004KT 10SM FEW050 BKN065 16/07 A2998 RMK AO2 SLP150 T01560072
KPDX 132353Z 35007KT 10SM SCT050 BKN065 16/08 A2998 RMK AO2 SLP149 T01610078 10172 20128 53004
KPDX 132253Z 29005KT 10SM FEW045 BKN060 OVC080 17/08 A2997 RMK AO2 SLP147 T01670078
KPDX 132153Z 29006KT 10SM FEW045 BKN060 BKN080 17/06 A2996 RMK AO2 SLP144 T01720061
KPDX 132053Z 30004KT 10SM FEW050 BKN060 BKN080 17/05 A2996 RMK AO2 SLP145 T01670050 58006
KPDX 131953Z 31004KT 10SM BKN060 16/07 A2997 RMK AO2 SLP148 T01560067
KPDX 131853Z 00000KT 10SM BKN060 14/08 A2998 RMK AO2 SLP151 T01390078
KPDX 131753Z 00000KT 10SM OVC060 13/07 A2998 RMK AO2 SLP152 T01280072 10133 20100 51007
KPDX 131653Z 00000KT 10SM OVC055 12/07 A2998 RMK AO2 SLP152 T01220072
KPDX 131553Z 00000KT 10SM OVC060 12/08 A2997 RMK AO2 SLP148 T01170078
KPDX 131453Z 00000KT 10SM OVC060 11/08 A2996 RMK AO2 SLP146 T01110078 51011
KPDX 131353Z 24003KT 10SM OVC065 11/07 A2996 RMK AO2 SLP144 T01060067
KPDX 131253Z 00000KT 10SM OVC065 12/06 A2994 RMK AO2 SLP138 T01170061
KPDX 131153Z 07004KT 10SM SCT065 OVC080 12/05 A2993 RMK AO2 SLP133 T01170050 10122 20106 56004
KPDX 131053Z 00000KT 10SM OVC065 11/07 A2993 RMK AO2 SLP134 T01110067
KPDX 130953Z 00000KT 10SM BKN090 OVC110 11/08 A2994 RMK AO2 SLP136 T01110078
KPDX 130853Z 32003KT 10SM BKN090 BKN110 12/07 A2994 RMK AO2 SLP137 T01170072 53001
KPDX 130753Z 09006KT 10SM OVC090 12/07 A2992 RMK AO2 SLP131 T01170067 401670033
KPDX 130653Z 19003KT 10SM BKN095 11/06 A2994 RMK AO2 SLP136 T01110061
KPDX 130553Z 32005KT 10SM BKN100 12/07 A2994 RMK AO2 SLP137 T01220072 10161 20122 53003
KPDX 130453Z 00000KT 10SM BKN090 OVC110 13/07 A2993 RMK AO2 SLP133 T01330067
KPDX 130353Z 00000KT 10SM BKN095 OVC120 13/06 A2993 RMK AO2 SLP134 T01330056
KPDX 130253Z 00000KT 10SM BKN100 OVC130 14/03 A2993 RMK AO2 SLP134 T01390028 55004
KPDX 130153Z 00000KT 10SM SCT110 BKN130 OVC250 15/02 A2993 RMK AO2 SLP133 T01500022
KPDX 130053Z 11003KT 10SM BKN120 OVC200 15/04 A2993 RMK AO2 SLP134 T01500039
KPDX 122353Z 36003KT 10SM BKN120 BKN210 OVC250 16/04 A2994 RMK AO2 SLP138 T01610039 10167 20111 56013